sensor_id;sensor_type;location;lat;lon;timestamp;P1;durP1;ratioP1;P2;durP2;ratioP2
7607;SDS011;3845;48.120;11.534;2023-03-04T00:00:22;41.20;;;27.47;;
7607;SDS011;3845;48.120;11.534;2023-03-04T00:02:47;49.03;;;32.13;;
7607;SDS011;3845;48.120;11.534;2023-03-04T00:05:12;45.83;;;30.27;;
7607;SDS011;3845;48.120;11.534;2023-03-04T00:07:38;41.37;;;28.37;;
7607;SDS011;3845;48.120;11.534;2023-03-04T00:10:04;42.13;;;29.67;;
7607;SDS011;3845;48.120;11.534;2023-03-04T00:12:29;39.43;;;27.13;;
7607;SDS011;3845;48.120;11.534;2023-03-04T00:14:55;39.23;;;26.97;;
7607;SDS011;3845;48.120;11.534;2023-03-04T00:17:20;35.57;;;24.87;;
7607;SDS011;3845;48.120;11.534;2023-03-04T00:19:46;36.07;;;24.67;;
7607;SDS011;3845;48.120;11.534;2023-03-04T00:22:11;36.80;;;25.67;;
7607;SDS011;3845;48.120;11.534;2023-03-04T00:24:36;39.43;;;26.27;;
7607;SDS011;3845;48.120;11.534;2023-03-04T00:27:01;44.33;;;30.57;;
7607;SDS011;3845;48.120;11.534;2023-03-04T00:29:27;37.60;;;27.27;;
7607;SDS011;3845;48.120;11.534;2023-03-04T00:31:52;39.03;;;27.97;;
7607;SDS011;3845;48.120;11.534;2023-03-04T00:34:17;36.30;;;25.50;;
7607;SDS011;3845;48.120;11.534;2023-03-04T00:36:43;36.53;;;25.50;;
7607;SDS011;3845;48.120;11.534;2023-03-04T00:39:09;36.77;;;26.03;;
7607;SDS011;3845;48.120;11.534;2023-03-04T00:41:35;40.90;;;26.63;;
7607;SDS011;3845;48.120;11.534;2023-03-04T00:44:00;39.30;;;26.87;;
7607;SDS011;3845;48.120;11.534;2023-03-04T00:46:26;33.67;;;24.73;;
7607;SDS011;3845;48.120;11.534;2023-03-04T00:48:51;35.63;;;25.03;;
7607;SDS011;3845;48.120;11.534;2023-03-04T00:51:16;32.80;;;23.10;;
7607;SDS011;3845;48.120;11.534;2023-03-04T00:53:41;33.27;;;24.73;;
7607;SDS011;3845;48.120;11.534;2023-03-04T00:56:07;37.23;;;26.23;;
7607;SDS011;3845;48.120;11.534;2023-03-04T00:58:32;33.97;;;24.47;;
7607;SDS011;3845;48.120;11.534;2023-03-04T01:00:57;32.10;;;23.63;;
7607;SDS011;3845;48.120;11.534;2023-03-04T01:03:23;32.87;;;23.97;;
7607;SDS011;3845;48.120;11.534;2023-03-04T01:05:50;30.47;;;22.47;;
7607;SDS011;3845;48.120;11.534;2023-03-04T01:08:16;34.47;;;23.00;;
7607;SDS011;3845;48.120;11.534;2023-03-04T01:10:41;32.90;;;23.10;;
7607;SDS011;3845;48.120;11.534;2023-03-04T01:13:06;35.30;;;24.50;;
7607;SDS011;3845;48.120;11.534;2023-03-04T01:15:31;39.23;;;27.97;;
7607;SDS011;3845;48.120;11.534;2023-03-04T01:17:57;37.30;;;26.27;;
7607;SDS011;3845;48.120;11.534;2023-03-04T01:20:22;33.97;;;24.93;;
7607;SDS011;3845;48.120;11.534;2023-03-04T01:22:47;34.27;;;25.13;;
7607;SDS011;3845;48.120;11.534;2023-03-04T01:25:13;33.13;;;23.67;;
7607;SDS011;3845;48.120;11.534;2023-03-04T01:27:38;35.50;;;26.23;;
7607;SDS011;3845;48.120;11.534;2023-03-04T01:30:03;32.53;;;23.97;;
7607;SDS011;3845;48.120;11.534;2023-03-04T01:32:29;34.80;;;25.00;;
7607;SDS011;3845;48.120;11.534;2023-03-04T01:34:54;35.90;;;26.40;;
7607;SDS011;3845;48.120;11.534;2023-03-04T01:37:20;32.60;;;24.70;;
7607;SDS011;3845;48.120;11.534;2023-03-04T01:39:45;33.47;;;23.93;;
7607;SDS011;3845;48.120;11.534;2023-03-04T01:42:17;35.90;;;25.27;;
7607;SDS011;3845;48.120;11.534;2023-03-04T01:44:44;34.20;;;23.90;;
7607;SDS011;3845;48.120;11.534;2023-03-04T01:47:10;30.67;;;21.47;;
7607;SDS011;3845;48.120;11.534;2023-03-04T01:49:35;32.70;;;23.70;;
7607;SDS011;3845;48.120;11.534;2023-03-04T01:52:00;32.83;;;23.27;;
7607;SDS011;3845;48.120;11.534;2023-03-04T01:54:26;31.07;;;23.30;;
7607;SDS011;3845;48.120;11.534;2023-03-04T01:56:51;31.20;;;21.23;;
7607;SDS011;3845;48.120;11.534;2023-03-04T01:59:18;31.47;;;22.77;;
7607;SDS011;3845;48.120;11.534;2023-03-04T02:01:49;31.70;;;22.27;;
7607;SDS011;3845;48.120;11.534;2023-03-04T02:04:20;33.10;;;23.67;;
7607;SDS011;3845;48.120;11.534;2023-03-04T02:06:47;30.17;;;21.60;;
7607;SDS011;3845;48.120;11.534;2023-03-04T02:09:13;28.63;;;21.20;;
7607;SDS011;3845;48.120;11.534;2023-03-04T02:11:40;28.70;;;21.10;;
7607;SDS011;3845;48.120;11.534;2023-03-04T02:14:06;31.33;;;21.53;;
7607;SDS011;3845;48.120;11.534;2023-03-04T02:16:32;29.83;;;21.33;;
7607;SDS011;3845;48.120;11.534;2023-03-04T02:18:57;36.70;;;26.57;;
7607;SDS011;3845;48.120;11.534;2023-03-04T02:21:30;32.27;;;23.17;;
7607;SDS011;3845;48.120;11.534;2023-03-04T02:23:59;34.00;;;24.60;;
7607;SDS011;3845;48.120;11.534;2023-03-04T02:26:30;31.57;;;22.93;;
7607;SDS011;3845;48.120;11.534;2023-03-04T02:28:56;30.17;;;22.00;;
7607;SDS011;3845;48.120;11.534;2023-03-04T02:33:58;31.23;;;22.77;;
7607;SDS011;3845;48.120;11.534;2023-03-04T02:36:24;30.07;;;21.90;;
7607;SDS011;3845;48.120;11.534;2023-03-04T02:38:50;29.97;;;21.73;;
7607;SDS011;3845;48.120;11.534;2023-03-04T02:41:18;29.83;;;23.13;;
7607;SDS011;3845;48.120;11.534;2023-03-04T02:43:48;29.50;;;22.13;;
7607;SDS011;3845;48.120;11.534;2023-03-04T02:46:17;30.87;;;21.73;;
7607;SDS011;3845;48.120;11.534;2023-03-04T02:48:42;35.27;;;25.20;;
7607;SDS011;3845;48.120;11.534;2023-03-04T02:51:07;30.70;;;21.90;;
7607;SDS011;3845;48.120;11.534;2023-03-04T02:53:32;28.33;;;21.33;;
7607;SDS011;3845;48.120;11.534;2023-03-04T02:55:58;30.83;;;22.53;;
7607;SDS011;3845;48.120;11.534;2023-03-04T02:58:23;28.90;;;21.37;;
7607;SDS011;3845;48.120;11.534;2023-03-04T03:00:48;29.60;;;21.30;;
7607;SDS011;3845;48.120;11.534;2023-03-04T03:03:14;29.47;;;21.70;;
7607;SDS011;3845;48.120;11.534;2023-03-04T03:05:39;31.07;;;22.80;;
7607;SDS011;3845;48.120;11.534;2023-03-04T03:08:04;32.70;;;23.27;;
7607;SDS011;3845;48.120;11.534;2023-03-04T03:10:30;29.73;;;22.43;;
7607;SDS011;3845;48.120;11.534;2023-03-04T03:12:56;29.93;;;22.20;;
7607;SDS011;3845;48.120;11.534;2023-03-04T03:15:21;28.93;;;20.93;;
7607;SDS011;3845;48.120;11.534;2023-03-04T03:17:46;28.40;;;20.43;;
7607;SDS011;3845;48.120;11.534;2023-03-04T03:20:12;27.53;;;20.87;;
7607;SDS011;3845;48.120;11.534;2023-03-04T03:22:38;29.50;;;20.93;;
7607;SDS011;3845;48.120;11.534;2023-03-04T03:25:04;28.03;;;20.87;;
7607;SDS011;3845;48.120;11.534;2023-03-04T03:27:30;26.53;;;19.60;;
7607;SDS011;3845;48.120;11.534;2023-03-04T03:29:55;31.70;;;23.93;;
7607;SDS011;3845;48.120;11.534;2023-03-04T03:32:21;32.83;;;23.63;;
7607;SDS011;3845;48.120;11.534;2023-03-04T03:34:46;28.47;;;21.17;;
7607;SDS011;3845;48.120;11.534;2023-03-04T03:37:11;30.77;;;22.83;;
7607;SDS011;3845;48.120;11.534;2023-03-04T03:39:37;33.00;;;23.50;;
7607;SDS011;3845;48.120;11.534;2023-03-04T03:42:02;31.90;;;22.40;;
7607;SDS011;3845;48.120;11.534;2023-03-04T03:44:27;29.77;;;22.03;;
7607;SDS011;3845;48.120;11.534;2023-03-04T03:46:53;27.90;;;21.03;;
7607;SDS011;3845;48.120;11.534;2023-03-04T03:49:18;28.60;;;21.33;;
7607;SDS011;3845;48.120;11.534;2023-03-04T03:51:43;28.73;;;20.57;;
7607;SDS011;3845;48.120;11.534;2023-03-04T03:54:09;27.73;;;19.90;;
7607;SDS011;3845;48.120;11.534;2023-03-04T03:56:34;26.50;;;19.77;;
7607;SDS011;3845;48.120;11.534;2023-03-04T03:58:59;28.43;;;20.00;;
7607;SDS011;3845;48.120;11.534;2023-03-04T04:01:25;30.03;;;20.33;;
7607;SDS011;3845;48.120;11.534;2023-03-04T04:03:50;26.87;;;19.87;;
7607;SDS011;3845;48.120;11.534;2023-03-04T04:06:15;28.70;;;21.20;;
7607;SDS011;3845;48.120;11.534;2023-03-04T04:08:41;28.63;;;20.20;;
7607;SDS011;3845;48.120;11.534;2023-03-04T04:11:10;31.43;;;22.07;;
7607;SDS011;3845;48.120;11.534;2023-03-04T04:13:36;34.07;;;25.83;;
7607;SDS011;3845;48.120;11.534;2023-03-04T04:16:02;32.23;;;23.93;;
7607;SDS011;3845;48.120;11.534;2023-03-04T04:18:27;39.60;;;27.87;;
7607;SDS011;3845;48.120;11.534;2023-03-04T04:20:52;41.03;;;29.07;;
7607;SDS011;3845;48.120;11.534;2023-03-04T04:23:18;44.63;;;29.63;;
7607;SDS011;3845;48.120;11.534;2023-03-04T04:25:43;44.40;;;30.90;;
7607;SDS011;3845;48.120;11.534;2023-03-04T04:28:09;40.97;;;29.63;;
7607;SDS011;3845;48.120;11.534;2023-03-04T04:30:34;36.37;;;26.17;;
7607;SDS011;3845;48.120;11.534;2023-03-04T04:32:59;33.00;;;24.33;;
7607;SDS011;3845;48.120;11.534;2023-03-04T04:35:26;36.03;;;25.23;;
7607;SDS011;3845;48.120;11.534;2023-03-04T04:37:52;34.73;;;24.70;;
7607;SDS011;3845;48.120;11.534;2023-03-04T04:40:17;32.60;;;23.40;;
7607;SDS011;3845;48.120;11.534;2023-03-04T04:42:43;31.33;;;23.20;;
7607;SDS011;3845;48.120;11.534;2023-03-04T04:45:08;33.70;;;23.60;;
7607;SDS011;3845;48.120;11.534;2023-03-04T04:47:34;30.47;;;22.10;;
7607;SDS011;3845;48.120;11.534;2023-03-04T04:49:59;32.87;;;23.37;;
7607;SDS011;3845;48.120;11.534;2023-03-04T04:52:24;30.17;;;21.03;;
7607;SDS011;3845;48.120;11.534;2023-03-04T04:54:49;30.10;;;22.40;;
7607;SDS011;3845;48.120;11.534;2023-03-04T04:57:15;29.53;;;21.33;;
7607;SDS011;3845;48.120;11.534;2023-03-04T04:59:40;30.53;;;21.90;;
7607;SDS011;3845;48.120;11.534;2023-03-04T05:02:05;31.17;;;21.50;;
7607;SDS011;3845;48.120;11.534;2023-03-04T05:04:30;29.60;;;22.87;;
7607;SDS011;3845;48.120;11.534;2023-03-04T05:06:56;29.80;;;22.17;;
7607;SDS011;3845;48.120;11.534;2023-03-04T05:09:21;28.23;;;20.97;;
7607;SDS011;3845;48.120;11.534;2023-03-04T05:11:47;26.93;;;19.37;;
7607;SDS011;3845;48.120;11.534;2023-03-04T05:14:12;26.87;;;20.50;;
7607;SDS011;3845;48.120;11.534;2023-03-04T05:16:37;32.87;;;22.50;;
7607;SDS011;3845;48.120;11.534;2023-03-04T05:19:03;34.17;;;23.63;;
7607;SDS011;3845;48.120;11.534;2023-03-04T05:21:28;30.00;;;21.60;;
7607;SDS011;3845;48.120;11.534;2023-03-04T05:23:53;28.00;;;21.03;;
7607;SDS011;3845;48.120;11.534;2023-03-04T05:26:19;35.53;;;25.90;;
7607;SDS011;3845;48.120;11.534;2023-03-04T05:28:44;30.10;;;22.70;;
7607;SDS011;3845;48.120;11.534;2023-03-04T05:31:09;31.03;;;22.57;;
7607;SDS011;3845;48.120;11.534;2023-03-04T05:33:35;30.93;;;21.90;;
7607;SDS011;3845;48.120;11.534;2023-03-04T05:36:01;26.20;;;19.83;;
7607;SDS011;3845;48.120;11.534;2023-03-04T05:38:27;32.33;;;23.27;;
7607;SDS011;3845;48.120;11.534;2023-03-04T05:40:57;30.60;;;21.00;;
7607;SDS011;3845;48.120;11.534;2023-03-04T05:43:24;28.77;;;20.93;;
7607;SDS011;3845;48.120;11.534;2023-03-04T05:45:50;27.93;;;20.87;;
7607;SDS011;3845;48.120;11.534;2023-03-04T05:48:15;29.63;;;21.30;;
7607;SDS011;3845;48.120;11.534;2023-03-04T05:50:40;30.97;;;22.10;;
7607;SDS011;3845;48.120;11.534;2023-03-04T05:53:05;30.47;;;21.87;;
7607;SDS011;3845;48.120;11.534;2023-03-04T05:55:31;31.70;;;23.63;;
7607;SDS011;3845;48.120;11.534;2023-03-04T05:57:56;29.33;;;21.53;;
7607;SDS011;3845;48.120;11.534;2023-03-04T06:00:22;33.07;;;24.93;;
7607;SDS011;3845;48.120;11.534;2023-03-04T06:02:48;37.90;;;26.50;;
7607;SDS011;3845;48.120;11.534;2023-03-04T06:05:13;37.30;;;27.23;;
7607;SDS011;3845;48.120;11.534;2023-03-04T06:07:40;40.37;;;28.50;;
7607;SDS011;3845;48.120;11.534;2023-03-04T06:10:07;37.23;;;27.10;;
7607;SDS011;3845;48.120;11.534;2023-03-04T06:12:33;36.30;;;26.03;;
7607;SDS011;3845;48.120;11.534;2023-03-04T06:14:58;42.23;;;28.13;;
7607;SDS011;3845;48.120;11.534;2023-03-04T06:17:24;36.03;;;25.33;;
7607;SDS011;3845;48.120;11.534;2023-03-04T06:19:49;34.63;;;25.80;;
7607;SDS011;3845;48.120;11.534;2023-03-04T06:22:14;34.33;;;23.70;;
7607;SDS011;3845;48.120;11.534;2023-03-04T06:24:39;30.10;;;21.67;;
7607;SDS011;3845;48.120;11.534;2023-03-04T06:27:05;31.80;;;21.77;;
7607;SDS011;3845;48.120;11.534;2023-03-04T06:29:30;27.60;;;21.40;;
7607;SDS011;3845;48.120;11.534;2023-03-04T06:31:56;27.20;;;20.83;;
7607;SDS011;3845;48.120;11.534;2023-03-04T06:34:21;30.40;;;21.83;;
7607;SDS011;3845;48.120;11.534;2023-03-04T06:36:47;27.73;;;20.00;;
7607;SDS011;3845;48.120;11.534;2023-03-04T06:39:12;28.53;;;20.53;;
7607;SDS011;3845;48.120;11.534;2023-03-04T06:41:37;30.87;;;20.90;;
7607;SDS011;3845;48.120;11.534;2023-03-04T06:44:03;27.07;;;19.60;;
7607;SDS011;3845;48.120;11.534;2023-03-04T06:46:29;31.73;;;23.10;;
7607;SDS011;3845;48.120;11.534;2023-03-04T06:48:55;29.40;;;21.50;;
7607;SDS011;3845;48.120;11.534;2023-03-04T06:51:20;28.67;;;20.83;;
7607;SDS011;3845;48.120;11.534;2023-03-04T06:53:45;28.23;;;19.93;;
7607;SDS011;3845;48.120;11.534;2023-03-04T06:56:11;28.03;;;20.93;;
7607;SDS011;3845;48.120;11.534;2023-03-04T06:58:40;30.27;;;22.63;;
7607;SDS011;3845;48.120;11.534;2023-03-04T07:01:21;28.47;;;20.73;;
7607;SDS011;3845;48.120;11.534;2023-03-04T07:03:48;28.77;;;20.40;;
7607;SDS011;3845;48.120;11.534;2023-03-04T07:06:15;26.50;;;20.03;;
7607;SDS011;3845;48.120;11.534;2023-03-04T07:08:42;26.73;;;19.70;;
7607;SDS011;3845;48.120;11.534;2023-03-04T07:11:07;26.33;;;18.93;;
7607;SDS011;3845;48.120;11.534;2023-03-04T07:13:33;24.93;;;18.57;;
7607;SDS011;3845;48.120;11.534;2023-03-04T07:16:02;24.37;;;18.13;;
7607;SDS011;3845;48.120;11.534;2023-03-04T07:18:30;24.73;;;18.53;;
7607;SDS011;3845;48.120;11.534;2023-03-04T07:20:56;25.83;;;18.63;;
7607;SDS011;3845;48.120;11.534;2023-03-04T07:23:21;27.77;;;20.63;;
7607;SDS011;3845;48.120;11.534;2023-03-04T07:25:47;28.73;;;19.40;;
7607;SDS011;3845;48.120;11.534;2023-03-04T07:28:13;29.00;;;20.80;;
7607;SDS011;3845;48.120;11.534;2023-03-04T07:30:38;28.03;;;21.30;;
7607;SDS011;3845;48.120;11.534;2023-03-04T07:33:04;40.67;;;28.40;;
7607;SDS011;3845;48.120;11.534;2023-03-04T07:35:29;31.77;;;22.60;;
7607;SDS011;3845;48.120;11.534;2023-03-04T07:37:54;30.23;;;21.33;;
7607;SDS011;3845;48.120;11.534;2023-03-04T07:40:19;30.33;;;22.90;;
7607;SDS011;3845;48.120;11.534;2023-03-04T07:42:48;36.63;;;26.97;;
7607;SDS011;3845;48.120;11.534;2023-03-04T07:45:17;32.93;;;23.03;;
7607;SDS011;3845;48.120;11.534;2023-03-04T07:47:43;32.63;;;24.33;;
7607;SDS011;3845;48.120;11.534;2023-03-04T07:50:09;35.20;;;23.43;;
7607;SDS011;3845;48.120;11.534;2023-03-04T07:52:38;34.23;;;24.47;;
7607;SDS011;3845;48.120;11.534;2023-03-04T07:55:04;32.83;;;22.73;;
7607;SDS011;3845;48.120;11.534;2023-03-04T07:57:30;41.47;;;29.27;;
7607;SDS011;3845;48.120;11.534;2023-03-04T07:59:55;37.83;;;26.47;;
7607;SDS011;3845;48.120;11.534;2023-03-04T08:02:20;37.00;;;26.87;;
7607;SDS011;3845;48.120;11.534;2023-03-04T08:04:46;39.33;;;27.97;;
7607;SDS011;3845;48.120;11.534;2023-03-04T08:07:11;39.77;;;28.77;;
7607;SDS011;3845;48.120;11.534;2023-03-04T08:09:36;39.00;;;27.10;;
7607;SDS011;3845;48.120;11.534;2023-03-04T08:12:01;46.53;;;31.37;;
7607;SDS011;3845;48.120;11.534;2023-03-04T08:14:27;43.23;;;30.80;;
7607;SDS011;3845;48.120;11.534;2023-03-04T08:16:52;38.10;;;27.83;;
7607;SDS011;3845;48.120;11.534;2023-03-04T08:19:18;38.67;;;28.33;;
7607;SDS011;3845;48.120;11.534;2023-03-04T08:21:43;46.43;;;31.57;;
7607;SDS011;3845;48.120;11.534;2023-03-04T08:24:09;48.67;;;33.00;;
7607;SDS011;3845;48.120;11.534;2023-03-04T08:26:36;51.00;;;36.03;;
7607;SDS011;3845;48.120;11.534;2023-03-04T08:29:05;47.80;;;33.70;;
7607;SDS011;3845;48.120;11.534;2023-03-04T08:31:31;46.70;;;32.03;;
7607;SDS011;3845;48.120;11.534;2023-03-04T08:33:56;45.23;;;29.53;;
7607;SDS011;3845;48.120;11.534;2023-03-04T08:36:21;37.43;;;26.57;;
7607;SDS011;3845;48.120;11.534;2023-03-04T08:38:47;38.73;;;27.03;;
7607;SDS011;3845;48.120;11.534;2023-03-04T08:41:12;40.60;;;28.03;;
7607;SDS011;3845;48.120;11.534;2023-03-04T08:43:39;44.80;;;31.40;;
7607;SDS011;3845;48.120;11.534;2023-03-04T08:46:04;42.30;;;28.83;;
7607;SDS011;3845;48.120;11.534;2023-03-04T08:48:30;37.47;;;27.97;;
7607;SDS011;3845;48.120;11.534;2023-03-04T08:50:55;43.80;;;28.80;;
7607;SDS011;3845;48.120;11.534;2023-03-04T08:53:21;48.67;;;33.13;;
7607;SDS011;3845;48.120;11.534;2023-03-04T08:55:46;39.23;;;28.03;;
7607;SDS011;3845;48.120;11.534;2023-03-04T08:58:12;36.57;;;26.60;;
7607;SDS011;3845;48.120;11.534;2023-03-04T09:00:39;41.97;;;29.53;;
7607;SDS011;3845;48.120;11.534;2023-03-04T09:03:07;39.50;;;27.83;;
7607;SDS011;3845;48.120;11.534;2023-03-04T09:05:33;34.77;;;25.77;;
7607;SDS011;3845;48.120;11.534;2023-03-04T09:08:00;36.20;;;25.50;;
7607;SDS011;3845;48.120;11.534;2023-03-04T09:10:25;40.77;;;27.97;;
7607;SDS011;3845;48.120;11.534;2023-03-04T09:12:50;41.43;;;29.03;;
7607;SDS011;3845;48.120;11.534;2023-03-04T09:15:16;38.27;;;28.17;;
7607;SDS011;3845;48.120;11.534;2023-03-04T09:17:41;44.03;;;29.70;;
7607;SDS011;3845;48.120;11.534;2023-03-04T09:20:07;34.80;;;24.47;;
7607;SDS011;3845;48.120;11.534;2023-03-04T09:22:34;35.30;;;24.90;;
7607;SDS011;3845;48.120;11.534;2023-03-04T09:25:00;36.83;;;25.60;;
7607;SDS011;3845;48.120;11.534;2023-03-04T09:27:25;35.33;;;23.83;;
7607;SDS011;3845;48.120;11.534;2023-03-04T09:29:51;40.07;;;25.33;;
7607;SDS011;3845;48.120;11.534;2023-03-04T09:32:16;33.13;;;22.97;;
7607;SDS011;3845;48.120;11.534;2023-03-04T09:34:41;33.27;;;23.67;;
7607;SDS011;3845;48.120;11.534;2023-03-04T09:37:07;38.93;;;27.90;;
7607;SDS011;3845;48.120;11.534;2023-03-04T09:39:32;40.03;;;26.63;;
7607;SDS011;3845;48.120;11.534;2023-03-04T09:41:57;40.83;;;27.73;;
7607;SDS011;3845;48.120;11.534;2023-03-04T09:44:25;40.13;;;27.17;;
7607;SDS011;3845;48.120;11.534;2023-03-04T09:46:53;37.30;;;25.20;;
7607;SDS011;3845;48.120;11.534;2023-03-04T09:49:22;34.37;;;23.23;;
7607;SDS011;3845;48.120;11.534;2023-03-04T09:51:50;37.17;;;26.00;;
7607;SDS011;3845;48.120;11.534;2023-03-04T09:56:50;37.73;;;24.60;;
7607;SDS011;3845;48.120;11.534;2023-03-04T09:59:24;31.17;;;22.23;;
7607;SDS011;3845;48.120;11.534;2023-03-04T10:01:53;28.37;;;20.63;;
7607;SDS011;3845;48.120;11.534;2023-03-04T10:04:38;31.63;;;22.10;;
7607;SDS011;3845;48.120;11.534;2023-03-04T10:07:13;36.30;;;24.40;;
7607;SDS011;3845;48.120;11.534;2023-03-04T10:12:17;36.40;;;24.37;;
7607;SDS011;3845;48.120;11.534;2023-03-04T10:14:47;28.40;;;20.40;;
7607;SDS011;3845;48.120;11.534;2023-03-04T10:22:29;30.47;;;21.63;;
7607;SDS011;3845;48.120;11.534;2023-03-04T10:24:57;30.40;;;21.77;;
7607;SDS011;3845;48.120;11.534;2023-03-04T10:27:23;39.43;;;25.23;;
7607;SDS011;3845;48.120;11.534;2023-03-04T10:29:49;34.37;;;23.30;;
7607;SDS011;3845;48.120;11.534;2023-03-04T10:32:15;36.00;;;24.57;;
7607;SDS011;3845;48.120;11.534;2023-03-04T10:34:42;32.30;;;23.33;;
7607;SDS011;3845;48.120;11.534;2023-03-04T10:37:07;39.50;;;26.63;;
7607;SDS011;3845;48.120;11.534;2023-03-04T10:44:37;26.60;;;20.80;;
7607;SDS011;3845;48.120;11.534;2023-03-04T10:47:08;38.33;;;24.83;;
7607;SDS011;3845;48.120;11.534;2023-03-04T10:49:36;30.03;;;22.03;;
7607;SDS011;3845;48.120;11.534;2023-03-04T10:52:18;37.37;;;23.93;;
7607;SDS011;3845;48.120;11.534;2023-03-04T10:54:49;30.80;;;21.17;;
7607;SDS011;3845;48.120;11.534;2023-03-04T10:57:20;31.93;;;22.93;;
7607;SDS011;3845;48.120;11.534;2023-03-04T10:59:58;34.33;;;24.13;;
7607;SDS011;3845;48.120;11.534;2023-03-04T11:02:26;30.43;;;21.60;;
7607;SDS011;3845;48.120;11.534;2023-03-04T11:07:29;31.03;;;21.57;;
7607;SDS011;3845;48.120;11.534;2023-03-04T11:09:54;32.40;;;22.20;;
7607;SDS011;3845;48.120;11.534;2023-03-04T11:12:20;27.37;;;18.83;;
7607;SDS011;3845;48.120;11.534;2023-03-04T11:14:50;27.43;;;19.93;;
7607;SDS011;3845;48.120;11.534;2023-03-04T11:20:11;36.57;;;25.27;;
7607;SDS011;3845;48.120;11.534;2023-03-04T11:23:06;27.83;;;20.20;;
7607;SDS011;3845;48.120;11.534;2023-03-04T11:25:40;32.80;;;21.53;;
7607;SDS011;3845;48.120;11.534;2023-03-04T11:28:25;28.90;;;20.90;;
7607;SDS011;3845;48.120;11.534;2023-03-04T11:30:57;28.60;;;20.13;;
7607;SDS011;3845;48.120;11.534;2023-03-04T11:33:32;26.93;;;18.53;;
7607;SDS011;3845;48.120;11.534;2023-03-04T11:38:38;28.63;;;20.63;;
7607;SDS011;3845;48.120;11.534;2023-03-04T11:43:56;32.60;;;23.17;;
7607;SDS011;3845;48.120;11.534;2023-03-04T11:52:27;36.10;;;23.83;;
7607;SDS011;3845;48.120;11.534;2023-03-04T11:58:08;35.43;;;24.07;;
7607;SDS011;3845;48.120;11.534;2023-03-04T12:01:00;37.30;;;26.23;;
7607;SDS011;3845;48.120;11.534;2023-03-04T12:03:53;34.20;;;25.53;;
7607;SDS011;3845;48.120;11.534;2023-03-04T12:06:42;39.17;;;26.97;;
7607;SDS011;3845;48.120;11.534;2023-03-04T12:15:22;32.70;;;23.60;;
7607;SDS011;3845;48.120;11.534;2023-03-04T12:18:20;36.60;;;25.50;;
7607;SDS011;3845;48.120;11.534;2023-03-04T12:23:26;38.23;;;25.70;;
7607;SDS011;3845;48.120;11.534;2023-03-04T12:36:53;37.10;;;25.73;;
7607;SDS011;3845;48.120;11.534;2023-03-04T12:39:31;29.60;;;21.30;;
7607;SDS011;3845;48.120;11.534;2023-03-04T12:44:47;27.60;;;20.57;;
7607;SDS011;3845;48.120;11.534;2023-03-04T12:55:14;36.53;;;24.10;;
7607;SDS011;3845;48.120;11.534;2023-03-04T12:57:41;31.97;;;22.20;;
7607;SDS011;3845;48.120;11.534;2023-03-04T13:00:08;26.93;;;19.57;;
7607;SDS011;3845;48.120;11.534;2023-03-04T13:11:54;26.97;;;19.20;;
7607;SDS011;3845;48.120;11.534;2023-03-04T13:16:51;33.00;;;20.20;;
7607;SDS011;3845;48.120;11.534;2023-03-04T13:25:47;26.10;;;17.37;;
7607;SDS011;3845;48.120;11.534;2023-03-04T13:43:25;28.73;;;20.80;;
7607;SDS011;3845;48.120;11.534;2023-03-04T13:45:52;30.30;;;20.87;;
7607;SDS011;3845;48.120;11.534;2023-03-04T13:48:26;26.53;;;19.20;;
7607;SDS011;3845;48.120;11.534;2023-03-04T13:50:54;24.63;;;17.77;;
7607;SDS011;3845;48.120;11.534;2023-03-04T13:53:33;25.50;;;16.97;;
7607;SDS011;3845;48.120;11.534;2023-03-04T13:56:11;21.60;;;15.07;;
7607;SDS011;3845;48.120;11.534;2023-03-04T13:58:44;26.27;;;20.07;;
7607;SDS011;3845;48.120;11.534;2023-03-04T14:01:19;25.37;;;18.47;;
7607;SDS011;3845;48.120;11.534;2023-03-04T14:03:47;24.97;;;17.47;;
7607;SDS011;3845;48.120;11.534;2023-03-04T14:09:14;23.40;;;17.13;;
7607;SDS011;3845;48.120;11.534;2023-03-04T14:11:41;21.90;;;16.53;;
7607;SDS011;3845;48.120;11.534;2023-03-04T14:14:10;25.10;;;17.70;;
7607;SDS011;3845;48.120;11.534;2023-03-04T14:16:38;22.23;;;15.87;;
7607;SDS011;3845;48.120;11.534;2023-03-04T14:19:05;24.57;;;18.33;;
7607;SDS011;3845;48.120;11.534;2023-03-04T14:21:36;25.97;;;18.10;;
7607;SDS011;3845;48.120;11.534;2023-03-04T14:24:03;22.73;;;16.13;;
7607;SDS011;3845;48.120;11.534;2023-03-04T14:26:29;26.27;;;18.10;;
7607;SDS011;3845;48.120;11.534;2023-03-04T14:28:55;23.10;;;16.70;;
7607;SDS011;3845;48.120;11.534;2023-03-04T14:31:23;21.73;;;15.67;;
7607;SDS011;3845;48.120;11.534;2023-03-04T14:33:52;29.47;;;19.97;;
7607;SDS011;3845;48.120;11.534;2023-03-04T14:36:25;23.93;;;17.33;;
7607;SDS011;3845;48.120;11.534;2023-03-04T14:38:56;25.33;;;17.10;;
7607;SDS011;3845;48.120;11.534;2023-03-04T14:46:34;27.43;;;17.93;;
7607;SDS011;3845;48.120;11.534;2023-03-04T14:49:01;21.67;;;15.60;;
7607;SDS011;3845;48.120;11.534;2023-03-04T14:51:27;23.73;;;16.10;;
7607;SDS011;3845;48.120;11.534;2023-03-04T14:53:54;23.77;;;15.87;;
7607;SDS011;3845;48.120;11.534;2023-03-04T14:56:25;23.40;;;15.97;;
7607;SDS011;3845;48.120;11.534;2023-03-04T14:58:53;19.80;;;14.73;;
7607;SDS011;3845;48.120;11.534;2023-03-04T15:01:22;20.97;;;15.47;;
7607;SDS011;3845;48.120;11.534;2023-03-04T15:04:03;23.97;;;15.43;;
7607;SDS011;3845;48.120;11.534;2023-03-04T15:06:35;21.90;;;14.90;;
7607;SDS011;3845;48.120;11.534;2023-03-04T15:11:53;19.83;;;14.90;;
7607;SDS011;3845;48.120;11.534;2023-03-04T15:14:41;22.30;;;15.30;;
7607;SDS011;3845;48.120;11.534;2023-03-04T15:17:21;22.53;;;15.30;;
7607;SDS011;3845;48.120;11.534;2023-03-04T15:22:32;18.87;;;13.10;;
7607;SDS011;3845;48.120;11.534;2023-03-04T15:24:57;25.93;;;15.90;;
7607;SDS011;3845;48.120;11.534;2023-03-04T15:27:24;20.13;;;14.33;;
7607;SDS011;3845;48.120;11.534;2023-03-04T15:29:53;25.07;;;17.00;;
7607;SDS011;3845;48.120;11.534;2023-03-04T15:32:23;20.83;;;15.23;;
7607;SDS011;3845;48.120;11.534;2023-03-04T15:34:49;22.70;;;15.23;;
7607;SDS011;3845;48.120;11.534;2023-03-04T15:37:22;18.80;;;13.70;;
7607;SDS011;3845;48.120;11.534;2023-03-04T15:39:49;16.70;;;12.30;;
7607;SDS011;3845;48.120;11.534;2023-03-04T15:42:15;20.03;;;13.80;;
7607;SDS011;3845;48.120;11.534;2023-03-04T15:44:41;17.83;;;12.10;;
7607;SDS011;3845;48.120;11.534;2023-03-04T15:47:07;18.17;;;12.63;;
7607;SDS011;3845;48.120;11.534;2023-03-04T15:49:36;22.23;;;15.17;;
7607;SDS011;3845;48.120;11.534;2023-03-04T15:52:02;19.67;;;13.77;;
7607;SDS011;3845;48.120;11.534;2023-03-04T15:54:28;17.37;;;12.47;;
7607;SDS011;3845;48.120;11.534;2023-03-04T15:56:54;24.07;;;16.53;;
7607;SDS011;3845;48.120;11.534;2023-03-04T15:59:22;23.43;;;15.77;;
7607;SDS011;3845;48.120;11.534;2023-03-04T16:01:48;21.27;;;15.40;;
7607;SDS011;3845;48.120;11.534;2023-03-04T16:04:14;19.77;;;14.70;;
7607;SDS011;3845;48.120;11.534;2023-03-04T16:06:40;18.50;;;13.90;;
7607;SDS011;3845;48.120;11.534;2023-03-04T16:09:07;17.63;;;12.53;;
7607;SDS011;3845;48.120;11.534;2023-03-04T16:11:35;17.40;;;13.60;;
7607;SDS011;3845;48.120;11.534;2023-03-04T16:14:05;15.87;;;12.00;;
7607;SDS011;3845;48.120;11.534;2023-03-04T16:16:30;16.50;;;11.70;;
7607;SDS011;3845;48.120;11.534;2023-03-04T16:18:56;17.83;;;12.27;;
7607;SDS011;3845;48.120;11.534;2023-03-04T16:21:21;20.87;;;14.73;;
7607;SDS011;3845;48.120;11.534;2023-03-04T16:23:50;20.77;;;13.70;;
7607;SDS011;3845;48.120;11.534;2023-03-04T16:26:16;23.80;;;16.50;;
7607;SDS011;3845;48.120;11.534;2023-03-04T16:28:43;17.57;;;13.83;;